createdAt,value
2018-11-21T00:01:33.386Z,18.47
2018-11-21T00:04:00.971Z,18.47
2018-11-21T00:06:28.560Z,18.42
2018-11-21T00:08:56.185Z,18.43
2018-11-21T00:11:23.840Z,18.41
2018-11-21T00:13:51.411Z,18.45
2018-11-21T00:16:19.039Z,18.44
2018-11-21T00:18:46.674Z,18.46
2018-11-21T00:21:14.325Z,18.41
2018-11-21T00:23:42.011Z,18.44
2018-11-21T00:26:09.609Z,18.39
2018-11-21T00:28:37.210Z,18.36
2018-11-21T00:31:04.898Z,18.37
2018-11-21T00:33:32.507Z,18.37
2018-11-21T00:36:00.151Z,18.40
2018-11-21T00:38:27.761Z,18.40
2018-11-21T00:40:55.403Z,18.40
2018-11-21T00:43:22.996Z,18.39
2018-11-21T00:45:50.605Z,18.37
2018-11-21T00:48:18.214Z,18.34
2018-11-21T00:50:45.790Z,18.37
2018-11-21T00:53:13.513Z,18.36
2018-11-21T00:55:41.094Z,18.36
2018-11-21T00:58:08.709Z,18.34
2018-11-21T01:00:36.300Z,18.33
2018-11-21T01:03:03.897Z,18.32
2018-11-21T01:05:31.646Z,18.31
2018-11-21T01:07:59.330Z,18.31
2018-11-21T01:10:26.923Z,18.33
2018-11-21T01:12:54.511Z,18.36
2018-11-21T01:15:22.129Z,18.36
2018-11-21T01:17:49.936Z,18.34
2018-11-21T01:20:17.595Z,18.32
2018-11-21T01:22:45.196Z,18.30
2018-11-21T01:25:12.829Z,18.36
2018-11-21T01:27:40.466Z,18.33
2018-11-21T01:30:08.334Z,18.35
2018-11-21T01:32:35.941Z,18.32
2018-11-21T01:35:03.542Z,18.28
2018-11-21T01:37:31.156Z,18.31
2018-11-21T01:39:58.831Z,18.34
2018-11-21T01:42:26.504Z,18.37
2018-11-21T01:44:54.128Z,18.35
2018-11-21T01:47:21.707Z,18.35
2018-11-21T01:49:49.345Z,18.38
2018-11-21T01:52:16.949Z,18.34
2018-11-21T01:54:44.605Z,18.35
2018-11-21T01:57:12.196Z,18.35
2018-11-21T01:59:39.858Z,18.35
2018-11-21T02:02:07.522Z,18.33
2018-11-21T02:04:35.147Z,18.29
2018-11-21T02:07:02.851Z,18.32
2018-11-21T02:09:30.525Z,18.31
2018-11-21T02:11:58.156Z,18.31
2018-11-21T02:14:25.767Z,18.30
2018-11-21T02:16:53.373Z,18.32
2018-11-21T02:19:21.048Z,18.32
2018-11-21T02:21:48.662Z,18.30
2018-11-21T02:24:16.258Z,18.29
2018-11-21T02:26:43.904Z,18.33
2018-11-21T02:29:11.508Z,18.35
2018-11-21T02:31:39.187Z,18.31
2018-11-21T02:34:06.796Z,18.34
2018-11-21T02:36:34.451Z,18.28
2018-11-21T02:39:02.061Z,18.28
2018-11-21T02:41:29.715Z,18.28
2018-11-21T02:43:57.355Z,18.26
2018-11-21T02:46:24.972Z,18.25
2018-11-21T02:48:52.614Z,18.25
2018-11-21T02:51:20.222Z,18.21
2018-11-21T02:53:47.890Z,18.27
2018-11-21T02:56:15.507Z,18.24
2018-11-21T02:58:43.113Z,18.24
2018-11-21T03:01:10.750Z,18.25
2018-11-21T03:03:38.348Z,18.26
2018-11-21T03:06:06.005Z,18.27
2018-11-21T03:08:33.604Z,18.29
2018-11-21T03:11:01.243Z,18.25
2018-11-21T03:13:28.920Z,18.20
2018-11-21T03:15:56.558Z,18.21
2018-11-21T03:18:24.210Z,17.73
2018-11-21T03:20:51.795Z,18.21
2018-11-21T03:23:19.429Z,18.24
2018-11-21T03:25:47.032Z,18.24
2018-11-21T03:28:14.688Z,18.26
2018-11-21T03:30:42.288Z,18.25
2018-11-21T03:33:10.536Z,18.23
2018-11-21T03:35:38.128Z,18.19
2018-11-21T03:38:05.743Z,18.21
2018-11-21T03:40:33.327Z,18.20
2018-11-21T03:43:00.928Z,18.22
2018-11-21T03:45:28.544Z,18.22
2018-11-21T03:47:56.163Z,18.21
2018-11-21T03:50:23.783Z,18.23
2018-11-21T03:52:51.381Z,18.26
2018-11-21T03:55:19.008Z,18.23
2018-11-21T03:57:46.598Z,18.26
2018-11-21T04:00:14.320Z,18.27
2018-11-21T04:02:42.268Z,18.27
2018-11-21T04:05:10.480Z,18.26
2018-11-21T04:07:38.299Z,18.25
2018-11-21T04:10:08.116Z,18.24
2018-11-21T04:12:35.766Z,18.26
2018-11-21T04:15:03.410Z,18.24
2018-11-21T04:17:30.998Z,18.23
2018-11-21T04:19:58.584Z,18.24
2018-11-21T04:22:26.193Z,18.22
2018-11-21T04:24:53.815Z,18.22
2018-11-21T04:27:21.420Z,18.24
2018-11-21T04:29:49.022Z,18.21
2018-11-21T04:32:16.621Z,18.19
2018-11-21T04:34:44.234Z,18.20
2018-11-21T04:37:11.822Z,18.19
2018-11-21T04:39:39.439Z,18.18
2018-11-21T04:42:07.022Z,18.16
2018-11-21T04:44:34.672Z,18.22
2018-11-21T04:47:02.286Z,18.20
2018-11-21T04:49:29.915Z,18.23
2018-11-21T04:51:57.531Z,18.22
2018-11-21T04:54:25.154Z,18.19
2018-11-21T04:56:52.797Z,18.16
2018-11-21T04:59:20.440Z,18.18
2018-11-21T05:01:48.069Z,18.19
2018-11-21T05:04:15.745Z,18.18
2018-11-21T05:06:43.347Z,18.22
2018-11-21T05:09:11.938Z,18.18
2018-11-21T05:11:39.552Z,18.18
2018-11-21T05:14:07.352Z,18.21
2018-11-21T05:16:34.950Z,18.20
2018-11-21T05:19:02.600Z,18.19
2018-11-21T05:21:30.211Z,18.16
2018-11-21T05:23:57.802Z,18.16
2018-11-21T05:26:25.425Z,18.14
2018-11-21T05:28:53.007Z,18.13
2018-11-21T05:31:20.638Z,18.12
2018-11-21T05:33:48.270Z,18.17
2018-11-21T05:36:15.859Z,18.18
2018-11-21T05:38:43.465Z,18.14
2018-11-21T05:41:11.103Z,18.16
2018-11-21T05:43:38.728Z,18.16
2018-11-21T05:46:06.314Z,18.18
2018-11-21T05:48:33.949Z,18.19
2018-11-21T05:51:01.525Z,18.20
2018-11-21T05:53:29.147Z,18.19
2018-11-21T05:55:56.756Z,18.17
2018-11-21T05:58:24.371Z,18.16
2018-11-21T06:00:51.957Z,18.18
2018-11-21T06:03:19.566Z,18.16
2018-11-21T06:05:47.207Z,18.16
2018-11-21T06:08:14.852Z,18.16
2018-11-21T06:10:42.480Z,18.14
2018-11-21T06:13:10.121Z,18.13
2018-11-21T06:15:37.701Z,18.15
2018-11-21T06:18:05.291Z,18.18
2018-11-21T06:20:32.933Z,18.17
2018-11-21T06:23:00.591Z,18.15
2018-11-21T06:25:28.182Z,18.19
2018-11-21T06:27:55.806Z,18.18
2018-11-21T06:30:23.400Z,18.12
2018-11-21T06:32:50.967Z,18.10
2018-11-21T06:35:18.646Z,18.07
2018-11-21T06:37:46.224Z,18.08
2018-11-21T06:40:15.278Z,18.04
2018-11-21T06:42:52.758Z,18.07
2018-11-21T06:45:20.812Z,18.13
2018-11-21T06:47:48.421Z,18.07
2018-11-21T06:50:16.020Z,18.08
2018-11-21T06:52:43.653Z,18.06
2018-11-21T06:55:11.555Z,18.08
2018-11-21T06:57:39.406Z,18.04
2018-11-21T07:00:07.885Z,18.05
2018-11-21T07:02:37.063Z,18.03
2018-11-21T07:05:05.417Z,18.07
2018-11-21T07:07:33.112Z,18.03
2018-11-21T07:10:00.727Z,18.03
2018-11-21T07:12:28.393Z,18.04
2018-11-21T07:14:56.169Z,18.06
2018-11-21T07:17:23.822Z,18.07
2018-11-21T07:19:51.567Z,18.06
2018-11-21T07:22:19.161Z,18.07
2018-11-21T07:24:46.769Z,18.06
2018-11-21T07:27:14.443Z,18.03
2018-11-21T07:29:42.093Z,18.10
2018-11-21T07:32:09.776Z,18.05
2018-11-21T07:34:37.439Z,18.02
2018-11-21T07:37:05.094Z,18.05
2018-11-21T07:39:32.723Z,18.08
2018-11-21T07:42:00.369Z,18.07
2018-11-21T07:44:28.056Z,18.04
2018-11-21T07:46:55.714Z,18.00
2018-11-21T07:49:23.324Z,18.05
2018-11-21T07:51:50.952Z,18.03
2018-11-21T07:54:18.618Z,18.07
2018-11-21T07:57:05.667Z,18.02
2018-11-21T07:59:33.252Z,18.04
2018-11-21T08:02:13.064Z,18.03
2018-11-21T08:04:51.075Z,18.01
2018-11-21T08:07:27.275Z,18.04
2018-11-21T08:10:16.792Z,18.04
2018-11-21T08:13:03.557Z,18.05
2018-11-21T08:15:50.312Z,18.04
2018-11-21T08:18:55.490Z,18.02
2018-11-21T08:21:41.135Z,18.01
2018-11-21T08:24:17.418Z,18.00
2018-11-21T08:27:16.443Z,18.02
2018-11-21T08:29:44.229Z,18.03
2018-11-21T08:32:12.150Z,18.06
2018-11-21T08:34:39.876Z,18.03
2018-11-21T08:37:26.854Z,18.03
2018-11-21T08:39:54.670Z,18.04
2018-11-21T08:42:22.784Z,18.07
2018-11-21T08:44:50.366Z,18.07
2018-11-21T08:47:18.232Z,18.09
2018-11-21T08:49:48.311Z,18.08
2018-11-21T08:52:16.076Z,18.10
2018-11-21T08:54:43.820Z,18.08
2018-11-21T08:57:11.445Z,18.08
2018-11-21T08:59:39.126Z,18.11
2018-11-21T09:02:06.763Z,18.06
2018-11-21T09:07:07.576Z,18.06
2018-11-21T09:09:35.191Z,18.04
2018-11-21T09:14:35.674Z,18.10
2018-11-21T09:17:03.286Z,18.06
2018-11-21T09:19:30.952Z,18.09
2018-11-21T09:21:59.209Z,18.09
2018-11-21T09:24:26.372Z,18.08
2018-11-21T09:29:27.066Z,18.06
2018-11-21T09:31:54.730Z,18.09
2018-11-21T09:34:22.420Z,18.04
2018-11-21T09:36:50.205Z,18.04
2018-11-21T09:39:17.854Z,18.01
2018-11-21T09:41:45.517Z,18.03
2018-11-21T09:44:13.170Z,18.04
2018-11-21T09:46:40.742Z,18.01
2018-11-21T09:49:08.374Z,18.04
2018-11-21T09:51:35.976Z,18.00
2018-11-21T09:54:03.555Z,17.98
2018-11-21T09:56:31.214Z,18.06
2018-11-21T09:58:58.803Z,17.98
2018-11-21T10:01:45.703Z,17.97
2018-11-21T10:04:13.280Z,17.98
2018-11-21T10:06:41.889Z,17.97
2018-11-21T10:09:28.596Z,17.99
2018-11-21T10:11:56.174Z,17.98
2018-11-21T10:14:23.763Z,17.99
2018-11-21T10:16:51.386Z,18.02
2018-11-21T10:19:18.958Z,17.98
2018-11-21T10:22:05.850Z,18.05
2018-11-21T10:24:33.420Z,18.18
2018-11-21T10:27:20.107Z,18.36
2018-11-21T10:29:47.686Z,18.35
2018-11-21T10:32:15.277Z,18.43
2018-11-21T10:35:02.167Z,18.49
2018-11-21T10:37:29.731Z,18.60
2018-11-21T10:39:57.328Z,18.56
2018-11-21T10:42:24.905Z,18.48
2018-11-21T10:44:52.482Z,18.31
2018-11-21T10:47:20.056Z,18.29
2018-11-21T10:49:47.640Z,18.31
2018-11-21T10:52:15.222Z,18.23
2018-11-21T10:54:42.826Z,18.26
2018-11-21T10:57:10.424Z,18.25
2018-11-21T10:59:38.023Z,18.31
2018-11-21T11:02:24.742Z,18.29
2018-11-21T11:05:11.439Z,18.23
2018-11-21T11:07:58.157Z,18.26
2018-11-21T11:10:44.860Z,18.28
2018-11-21T11:13:35.384Z,18.26
2018-11-21T11:16:18.270Z,18.27
2018-11-21T11:19:05.029Z,18.24
2018-11-21T11:21:51.750Z,18.27
2018-11-21T11:24:38.456Z,18.21
2018-11-21T11:27:25.162Z,18.22
2018-11-21T11:30:11.882Z,18.16
2018-11-21T11:32:58.572Z,18.20
2018-11-21T11:35:45.267Z,18.22
2018-11-21T11:38:31.982Z,18.20
2018-11-21T11:41:18.681Z,18.21
2018-11-21T11:44:05.399Z,18.29
2018-11-21T11:46:52.100Z,18.27
2018-11-21T11:49:33.189Z,18.26
2018-11-21T11:52:39.535Z,18.43
2018-11-21T11:55:26.771Z,18.35
2018-11-21T11:58:13.480Z,18.38
2018-11-21T12:01:00.206Z,18.40
2018-11-21T12:03:46.933Z,18.42
2018-11-21T12:06:33.622Z,18.55
2018-11-21T12:09:39.637Z,18.57
2018-11-21T12:12:26.323Z,18.54
2018-11-21T12:15:13.051Z,18.54
2018-11-21T12:17:59.746Z,18.54
2018-11-21T12:20:46.457Z,18.54
2018-11-21T12:23:33.198Z,18.59
2018-11-21T12:26:19.916Z,18.63
2018-11-21T12:29:06.603Z,18.59
2018-11-21T12:31:53.725Z,18.64
2018-11-21T12:34:41.054Z,18.67
2018-11-21T12:37:27.752Z,18.82
2018-11-21T12:40:14.533Z,18.76
2018-11-21T12:43:01.216Z,18.68
2018-11-21T12:45:47.930Z,18.71
2018-11-21T12:48:34.644Z,18.78
2018-11-21T12:51:40.648Z,18.75
2018-11-21T12:54:27.332Z,18.80
2018-11-21T12:57:06.787Z,18.84
2018-11-21T12:59:53.534Z,18.88
2018-11-21T13:02:40.246Z,18.87
2018-11-21T13:05:26.940Z,18.84
2018-11-21T13:08:13.666Z,18.94
2018-11-21T13:13:58.477Z,18.97
2018-11-21T13:17:04.488Z,19.05
2018-11-21T13:19:51.188Z,19.10
2018-11-21T13:22:37.885Z,19.11
2018-11-21T13:25:24.881Z,19.16
2018-11-21T13:28:11.555Z,19.18
2018-11-21T13:31:17.584Z,19.23
2018-11-21T13:33:56.777Z,19.31
2018-11-21T13:37:02.761Z,19.38
2018-11-21T13:39:49.456Z,19.32
2018-11-21T13:42:36.151Z,19.32
2018-11-21T13:45:22.884Z,19.43
2018-11-21T13:48:09.628Z,19.44
2018-11-21T13:50:56.330Z,19.41
2018-11-21T13:53:32.241Z,19.41
2018-11-21T13:55:59.890Z,19.51
2018-11-21T13:58:27.534Z,19.52
2018-11-21T14:00:55.198Z,19.62
2018-11-21T14:03:22.768Z,19.61
2018-11-21T14:05:50.429Z,19.71
2018-11-21T14:08:17.996Z,19.75
2018-11-21T14:10:45.598Z,19.69
2018-11-21T14:13:13.175Z,19.69
2018-11-21T14:15:40.754Z,19.76
2018-11-21T14:18:27.622Z,19.73
2018-11-21T14:20:55.266Z,19.75
2018-11-21T14:23:22.866Z,19.79
2018-11-21T14:25:50.454Z,19.87
2018-11-21T14:28:18.055Z,19.90
2018-11-21T14:30:45.651Z,19.94
2018-11-21T14:33:13.232Z,19.91
2018-11-21T14:35:40.870Z,20.03
2018-11-21T14:38:08.471Z,20.00
2018-11-21T14:40:36.052Z,20.08
2018-11-21T14:43:03.640Z,20.08
2018-11-21T14:45:31.214Z,20.01
2018-11-21T14:47:58.840Z,20.12
2018-11-21T14:50:27.578Z,20.13
2018-11-21T14:52:55.442Z,20.21
2018-11-21T14:55:23.074Z,20.23
2018-11-21T14:57:50.753Z,20.29
2018-11-21T15:00:19.747Z,20.28
2018-11-21T15:02:47.364Z,20.31
2018-11-21T15:05:15.359Z,20.33
2018-11-21T15:07:43.853Z,20.27
2018-11-21T15:10:12.369Z,20.35
2018-11-21T15:12:40.029Z,20.40
2018-11-21T15:15:08.898Z,20.45
2018-11-21T15:17:36.559Z,20.49
2018-11-21T15:20:05.001Z,20.48
2018-11-21T15:22:32.612Z,20.51
2018-11-21T15:25:00.243Z,20.51
2018-11-21T15:27:27.866Z,20.62
2018-11-21T15:30:00.075Z,20.67
2018-11-21T15:32:23.320Z,20.71
2018-11-21T15:34:50.928Z,20.73
2018-11-21T15:37:18.562Z,20.75
2018-11-21T15:39:46.249Z,20.81
2018-11-21T15:42:13.857Z,20.83
2018-11-21T15:44:41.508Z,20.85
2018-11-21T15:47:09.154Z,20.80
2018-11-21T15:49:36.843Z,20.83
2018-11-21T15:52:04.564Z,20.86
2018-11-21T15:54:32.168Z,20.92
2018-11-21T15:56:59.884Z,20.90
2018-11-21T15:59:27.452Z,21.04
2018-11-21T16:01:55.348Z,20.99
2018-11-21T16:04:22.973Z,21.02
2018-11-21T16:06:50.636Z,21.02
2018-11-21T16:09:18.320Z,21.05
2018-11-21T16:11:45.950Z,21.22
2018-11-21T16:14:13.538Z,21.19
2018-11-21T16:16:41.122Z,21.16
2018-11-21T16:19:08.850Z,21.20
2018-11-21T16:21:36.466Z,21.26
2018-11-21T16:24:04.214Z,21.27
2018-11-21T16:26:31.847Z,21.39
2018-11-21T16:28:59.460Z,21.29
2018-11-21T16:31:27.196Z,20.56
2018-11-21T16:33:54.815Z,21.34
2018-11-21T16:36:27.081Z,21.38
2018-11-21T16:38:50.235Z,21.41
2018-11-21T16:41:17.966Z,21.48
2018-11-21T16:43:45.643Z,21.43
2018-11-21T16:46:13.276Z,21.55
2018-11-21T16:48:40.984Z,21.44
2018-11-21T16:51:08.599Z,21.50
2018-11-21T16:53:37.191Z,21.56
2018-11-21T16:56:03.898Z,21.51
2018-11-21T16:58:31.549Z,21.65
2018-11-21T17:00:59.605Z,21.62
2018-11-21T17:03:26.890Z,21.64
2018-11-21T17:05:54.583Z,21.64
2018-11-21T17:08:22.233Z,21.63
2018-11-21T17:10:50.017Z,21.65
2018-11-21T17:13:17.708Z,21.65
2018-11-21T17:15:45.419Z,21.74
2018-11-21T17:18:13.077Z,21.76
2018-11-21T17:20:43.243Z,21.80
2018-11-21T17:23:10.941Z,21.74
2018-11-21T17:25:39.672Z,21.85
2018-11-21T17:28:07.300Z,21.91
2018-11-21T17:30:35.015Z,21.87
2018-11-21T17:33:02.667Z,21.80
2018-11-21T17:35:30.547Z,21.97
2018-11-21T17:38:01.909Z,21.84
2018-11-21T17:40:31.029Z,21.93
2018-11-21T17:42:59.077Z,21.86
2018-11-21T17:45:26.665Z,21.79
2018-11-21T17:47:54.445Z,21.98
2018-11-21T17:50:23.435Z,21.04
2018-11-21T17:52:52.610Z,21.95
2018-11-21T17:55:24.813Z,21.88
2018-11-21T17:57:52.435Z,22.02
2018-11-21T18:00:21.929Z,21.91
2018-11-21T18:02:49.592Z,21.91
2018-11-21T18:05:21.809Z,22.03
2018-11-21T18:07:49.396Z,22.01
2018-11-21T18:10:21.870Z,22.15
2018-11-21T18:12:49.155Z,22.12
2018-11-21T18:15:17.480Z,22.05
2018-11-21T18:17:46.163Z,22.15
2018-11-21T18:20:14.437Z,22.15
2018-11-21T18:22:42.706Z,22.18
2018-11-21T18:25:11.713Z,22.25
2018-11-21T18:27:39.374Z,22.22
2018-11-21T18:30:10.721Z,22.25
2018-11-21T18:32:38.294Z,22.24
2018-11-21T18:35:07.099Z,22.23
2018-11-21T18:37:34.677Z,22.29
2018-11-21T18:40:02.265Z,22.37
2018-11-21T18:42:29.851Z,22.30
2018-11-21T18:44:57.453Z,22.39
2018-11-21T18:47:25.060Z,22.49
2018-11-21T18:49:52.672Z,22.47
2018-11-21T18:52:20.261Z,22.44
2018-11-21T18:54:47.892Z,22.51
2018-11-21T18:57:47.190Z,22.64
2018-11-21T19:00:22.146Z,22.54
2018-11-21T19:02:49.757Z,22.70
2018-11-21T19:05:17.347Z,22.57
2018-11-21T19:07:44.945Z,22.59
2018-11-21T19:10:14.079Z,22.68
2018-11-21T19:12:41.976Z,22.63
2018-11-21T19:15:10.323Z,22.55
2018-11-21T19:17:37.910Z,22.73
2018-11-21T19:20:07.043Z,22.77
2018-11-21T19:22:34.633Z,22.61
2018-11-21T19:25:02.208Z,22.80
2018-11-21T19:27:29.804Z,22.74
2018-11-21T19:29:57.390Z,22.86
2018-11-21T19:32:25.002Z,22.98
2018-11-21T19:34:52.575Z,23.03
2018-11-21T19:37:20.160Z,22.79
2018-11-21T19:39:47.750Z,22.97
2018-11-21T19:42:20.147Z,22.99
2018-11-21T19:44:42.934Z,23.07
2018-11-21T19:47:10.667Z,23.05
2018-11-21T19:49:38.304Z,23.15
2018-11-21T19:52:06.078Z,22.99
2018-11-21T19:54:33.728Z,22.98
2018-11-21T19:57:01.391Z,23.09
2018-11-21T19:59:29.149Z,23.16
2018-11-21T20:01:56.911Z,23.24
2018-11-21T20:04:24.545Z,23.16
2018-11-21T20:06:52.153Z,23.18
2018-11-21T20:09:19.857Z,23.30
2018-11-21T20:11:47.603Z,23.47
2018-11-21T20:14:15.311Z,23.25
2018-11-21T20:16:42.960Z,23.26
2018-11-21T20:19:10.663Z,23.24
2018-11-21T20:21:38.262Z,23.22
2018-11-21T20:24:05.897Z,23.43
2018-11-21T20:26:33.576Z,23.29
2018-11-21T20:29:01.453Z,23.39
2018-11-21T20:31:29.096Z,23.31
2018-11-21T20:34:16.077Z,23.53
2018-11-21T20:36:43.836Z,23.57
2018-11-21T20:39:12.698Z,23.46
2018-11-21T20:41:40.775Z,23.66
2018-11-21T20:44:08.444Z,23.57
2018-11-21T20:46:36.012Z,23.53
2018-11-21T20:49:03.692Z,23.50
2018-11-21T20:51:31.413Z,23.47
2018-11-21T20:53:59.068Z,23.55
2018-11-21T20:56:26.743Z,23.74
2018-11-21T20:58:54.527Z,23.57
2018-11-21T21:01:22.174Z,23.70
2018-11-21T21:03:49.798Z,23.77
2018-11-21T21:06:17.397Z,23.62
2018-11-21T21:08:45.018Z,23.67
2018-11-21T21:11:31.927Z,23.69
2018-11-21T21:14:02.036Z,23.78
2018-11-21T21:16:29.689Z,23.91
2018-11-21T21:18:57.376Z,23.70
2018-11-21T21:21:24.999Z,23.74
2018-11-21T21:26:42.391Z,23.83
2018-11-21T21:29:10.051Z,23.96
2018-11-21T21:31:37.645Z,23.74
2018-11-21T21:34:05.300Z,23.77
2018-11-21T21:36:32.923Z,23.37
2018-11-21T21:39:00.544Z,23.84
2018-11-21T21:41:28.347Z,24.08
2018-11-21T21:43:55.933Z,24.11
2018-11-21T21:46:23.605Z,24.07
2018-11-21T21:48:51.399Z,24.07
2018-11-21T21:51:38.095Z,24.00
2018-11-21T21:54:05.817Z,23.89
2018-11-21T21:56:33.449Z,24.06
2018-11-21T21:59:20.396Z,24.21
2018-11-21T22:01:48.234Z,24.26
2018-11-21T22:04:16.478Z,24.13
2018-11-21T22:06:44.168Z,24.06
2018-11-21T22:09:12.900Z,24.09
2018-11-21T22:11:41.329Z,24.20
2018-11-21T22:14:28.230Z,24.07
2018-11-21T22:17:14.948Z,24.18
2018-11-21T22:19:42.579Z,24.06
2018-11-21T22:22:29.345Z,24.08
2018-11-21T22:24:56.929Z,24.32
2018-11-21T22:27:24.600Z,24.24
2018-11-21T22:30:11.334Z,24.22
2018-11-21T22:32:58.049Z,24.20
2018-11-21T22:35:27.227Z,24.31
2018-11-21T22:38:13.958Z,24.39
2018-11-21T22:40:41.590Z,24.45
2018-11-21T22:43:28.452Z,24.28
2018-11-21T22:45:56.087Z,24.39
